createdAt,value
2019-02-14T00:02:01.195Z,11.77
2019-02-14T00:04:32.477Z,12.30
2019-02-14T00:07:02.795Z,12.07
2019-02-14T00:09:33.079Z,12.00
2019-02-14T00:12:03.441Z,12.47
2019-02-14T00:14:33.765Z,12.10
2019-02-14T00:17:04.074Z,12.10
2019-02-14T00:19:34.340Z,12.67
2019-02-14T00:22:04.722Z,12.20
2019-02-14T00:24:35.110Z,14.03
2019-02-14T00:27:05.351Z,13.53
2019-02-14T00:29:35.668Z,13.07
2019-02-14T00:32:05.997Z,13.40
2019-02-14T00:34:36.327Z,13.20
2019-02-14T00:37:06.783Z,12.30
2019-02-14T00:39:37.108Z,13.23
2019-02-14T00:42:07.411Z,12.93
2019-02-14T00:44:37.739Z,13.17
2019-02-14T00:47:08.019Z,13.60
2019-02-14T00:49:38.414Z,13.77
2019-02-14T00:52:08.707Z,13.70
2019-02-14T00:54:39.067Z,13.30
2019-02-14T00:57:09.285Z,12.80
2019-02-14T00:59:39.748Z,13.40
2019-02-14T01:02:10.084Z,13.27
2019-02-14T01:04:40.343Z,13.53
2019-02-14T01:07:10.655Z,13.30
2019-02-14T01:09:41.007Z,15.13
2019-02-14T01:12:11.314Z,13.87
2019-02-14T01:14:41.579Z,14.80
2019-02-14T01:17:11.864Z,13.63
2019-02-14T01:19:42.199Z,13.17
2019-02-14T01:22:12.463Z,13.83
2019-02-14T01:24:42.772Z,13.03
2019-02-14T01:27:13.079Z,13.00
2019-02-14T01:29:45.450Z,12.90
2019-02-14T01:32:16.819Z,13.27
2019-02-14T01:34:47.408Z,13.67
2019-02-14T01:37:17.851Z,13.27
2019-02-14T01:39:48.273Z,13.90
2019-02-14T01:42:18.550Z,13.60
2019-02-14T01:44:48.892Z,13.43
2019-02-14T01:47:19.153Z,12.47
2019-02-14T01:49:49.562Z,12.30
2019-02-14T01:52:19.912Z,12.40
2019-02-14T01:54:50.239Z,12.77
2019-02-14T01:57:20.547Z,11.83
2019-02-14T01:59:51.204Z,12.57
2019-02-14T02:02:21.563Z,11.87
2019-02-14T02:04:52.222Z,12.23
2019-02-14T02:07:22.803Z,12.23
2019-02-14T02:09:53.053Z,11.20
2019-02-14T02:12:24.750Z,11.83
2019-02-14T02:14:55.045Z,10.73
2019-02-14T02:17:25.745Z,12.10
2019-02-14T02:19:56.059Z,10.90
2019-02-14T02:22:26.866Z,11.37
2019-02-14T02:24:57.170Z,11.23
2019-02-14T02:27:27.900Z,12.17
2019-02-14T02:29:58.216Z,11.60
2019-02-14T02:32:28.607Z,11.70
2019-02-14T02:34:59.059Z,13.10
2019-02-14T02:37:29.424Z,12.20
2019-02-14T02:39:59.807Z,11.87
2019-02-14T02:42:30.256Z,11.50
2019-02-14T02:45:00.512Z,12.00
2019-02-14T02:47:31.015Z,11.53
2019-02-14T02:50:01.494Z,12.10
2019-02-14T02:52:32.088Z,11.87
2019-02-14T02:55:02.589Z,12.23
2019-02-14T02:57:33.039Z,12.57
2019-02-14T03:00:03.548Z,12.93
2019-02-14T03:02:35.139Z,11.60
2019-02-14T03:05:06.113Z,12.43
2019-02-14T03:07:36.459Z,12.63
2019-02-14T03:10:07.613Z,11.30
2019-02-14T03:12:37.909Z,12.30
2019-02-14T03:15:09.301Z,11.90
2019-02-14T03:17:39.518Z,12.10
2019-02-14T03:20:10.790Z,12.53
2019-02-14T03:22:41.151Z,12.93
2019-02-14T03:25:14.205Z,12.20
2019-02-14T03:27:44.449Z,12.57
2019-02-14T03:30:15.127Z,13.70
2019-02-14T03:32:45.585Z,12.13
2019-02-14T03:35:15.910Z,12.20
2019-02-14T03:37:46.263Z,12.57
2019-02-14T03:40:16.610Z,11.13
2019-02-14T03:42:46.833Z,11.50
2019-02-14T03:45:17.575Z,11.93
2019-02-14T03:47:49.454Z,12.97
2019-02-14T03:50:19.802Z,11.30
2019-02-14T03:52:50.048Z,11.53
2019-02-14T03:55:21.277Z,11.80
2019-02-14T03:57:51.615Z,11.37
2019-02-14T04:00:21.941Z,11.37
2019-02-14T04:02:52.239Z,12.37
2019-02-14T04:05:22.622Z,11.93
2019-02-14T04:07:52.995Z,12.33
2019-02-14T04:10:23.285Z,12.47
2019-02-14T04:12:54.611Z,12.63
2019-02-14T04:15:24.871Z,12.87
2019-02-14T04:17:55.208Z,12.53
2019-02-14T04:20:25.619Z,12.30
2019-02-14T04:22:55.912Z,13.07
2019-02-14T04:25:26.233Z,11.93
2019-02-14T04:27:56.558Z,11.90
2019-02-14T04:30:27.162Z,12.43
2019-02-14T04:32:57.428Z,12.43
2019-02-14T04:35:27.714Z,12.30
2019-02-14T04:37:58.035Z,12.17
2019-02-14T04:40:33.516Z,12.63
2019-02-14T04:43:00.400Z,12.57
2019-02-14T04:45:30.706Z,12.37
2019-02-14T04:48:00.964Z,12.40
2019-02-14T04:50:31.316Z,12.23
2019-02-14T04:53:01.778Z,12.17
2019-02-14T04:55:32.135Z,12.40
2019-02-14T04:58:02.423Z,13.03
2019-02-14T05:00:32.798Z,12.33
2019-02-14T05:03:03.104Z,12.03
2019-02-14T05:05:33.513Z,12.97
2019-02-14T05:08:03.890Z,12.57
2019-02-14T05:10:34.138Z,12.90
2019-02-14T05:13:04.449Z,11.67
2019-02-14T05:15:34.790Z,12.30
2019-02-14T05:18:05.219Z,12.40
2019-02-14T05:20:35.480Z,12.47
2019-02-14T05:23:05.766Z,12.93
2019-02-14T05:25:35.993Z,12.03
2019-02-14T05:28:06.296Z,12.80
2019-02-14T05:30:36.554Z,12.63
2019-02-14T05:33:06.823Z,11.60
2019-02-14T05:35:37.278Z,12.27
2019-02-14T05:38:07.830Z,10.97
2019-02-14T05:40:38.058Z,11.23
2019-02-14T05:43:08.417Z,12.23
2019-02-14T05:45:38.658Z,12.47
2019-02-14T05:48:10.520Z,11.37
2019-02-14T05:50:41.235Z,10.87
2019-02-14T05:53:11.492Z,10.67
2019-02-14T05:55:42.369Z,11.53
2019-02-14T05:58:12.675Z,11.87
2019-02-14T06:00:45.977Z,12.13
2019-02-14T06:03:16.373Z,11.87
2019-02-14T06:05:46.676Z,11.40
2019-02-14T06:08:17.114Z,11.07
2019-02-14T06:10:49.924Z,12.00
2019-02-14T06:13:20.145Z,10.93
2019-02-14T06:15:50.684Z,12.73
2019-02-14T06:18:20.995Z,11.07
2019-02-14T06:20:51.291Z,11.93
2019-02-14T06:23:21.958Z,12.47
2019-02-14T06:25:52.455Z,12.53
2019-02-14T06:28:22.735Z,12.27
2019-02-14T06:30:53.042Z,13.27
2019-02-14T06:33:23.342Z,13.00
2019-02-14T06:35:55.962Z,13.60
2019-02-14T06:38:26.252Z,13.07
2019-02-14T06:40:56.578Z,13.37
2019-02-14T06:43:26.831Z,13.70
2019-02-14T06:46:00.566Z,13.53
2019-02-14T06:48:30.882Z,13.60
2019-02-14T06:51:01.276Z,12.83
2019-02-14T06:53:31.514Z,12.93
2019-02-14T06:56:01.774Z,14.50
2019-02-14T06:58:32.006Z,15.13
2019-02-14T07:01:02.357Z,13.87
2019-02-14T07:03:32.599Z,13.97
2019-02-14T07:06:02.899Z,13.83
2019-02-14T07:08:33.242Z,13.97
2019-02-14T07:11:03.742Z,14.50
2019-02-14T07:13:34.050Z,13.50
2019-02-14T07:16:04.457Z,13.70
2019-02-14T07:18:34.723Z,13.70
2019-02-14T07:21:05.043Z,14.97
2019-02-14T07:23:35.444Z,14.40
2019-02-14T07:26:05.675Z,13.83
2019-02-14T07:28:36.000Z,13.90
2019-02-14T07:31:06.351Z,13.60
2019-02-14T07:33:36.667Z,14.07
2019-02-14T07:36:06.923Z,13.17
2019-02-14T07:38:37.164Z,13.90
2019-02-14T07:41:07.446Z,12.60
2019-02-14T07:43:39.324Z,12.80
2019-02-14T07:46:09.546Z,12.07
2019-02-14T07:48:39.837Z,11.83
2019-02-14T07:51:10.087Z,12.10
2019-02-14T07:53:40.432Z,12.50
2019-02-14T07:56:10.711Z,13.87
2019-02-14T07:58:41.127Z,12.90
2019-02-14T08:01:11.489Z,14.10
2019-02-14T08:03:41.967Z,13.23
2019-02-14T08:06:12.237Z,12.87
2019-02-14T08:08:42.630Z,13.93
2019-02-14T08:11:12.991Z,14.27
2019-02-14T08:13:43.389Z,13.47
2019-02-14T08:16:13.688Z,14.43
2019-02-14T08:18:44.261Z,13.93
2019-02-14T08:21:14.738Z,14.47
2019-02-14T08:23:45.052Z,14.90
2019-02-14T08:26:15.304Z,14.20
2019-02-14T08:28:45.567Z,14.97
2019-02-14T08:31:15.939Z,14.63
2019-02-14T08:33:46.269Z,14.57
2019-02-14T08:36:16.602Z,14.60
2019-02-14T08:38:48.526Z,14.23
2019-02-14T08:41:19.280Z,16.40
2019-02-14T08:43:49.751Z,17.37
2019-02-14T08:46:21.067Z,15.53
2019-02-14T08:48:51.692Z,16.27
2019-02-14T08:51:22.991Z,16.50
2019-02-14T08:53:53.285Z,15.73
2019-02-14T08:56:23.648Z,15.23
2019-02-14T08:58:53.914Z,14.73
2019-02-14T09:01:24.330Z,15.43
2019-02-14T09:03:54.613Z,15.80
2019-02-14T09:06:24.962Z,15.07
2019-02-14T09:08:55.439Z,14.57
2019-02-14T09:11:27.374Z,15.33
2019-02-14T09:13:58.111Z,14.83
2019-02-14T09:16:28.432Z,14.80
2019-02-14T09:18:58.960Z,14.97
2019-02-14T09:21:29.211Z,14.87
2019-02-14T09:24:00.024Z,14.90
2019-02-14T09:26:30.332Z,12.93
2019-02-14T09:29:00.803Z,13.87
2019-02-14T09:31:31.194Z,14.60
2019-02-14T09:34:01.847Z,13.87
2019-02-14T09:36:32.178Z,14.00
2019-02-14T09:39:05.560Z,14.07
2019-02-14T09:41:35.954Z,13.87
2019-02-14T09:44:06.226Z,13.67
2019-02-14T09:46:36.476Z,13.83
2019-02-14T09:49:06.821Z,13.17
2019-02-14T09:51:37.291Z,13.57
2019-02-14T09:54:07.622Z,12.47
2019-02-14T09:56:38.013Z,12.90
2019-02-14T09:59:08.401Z,12.70
2019-02-14T10:01:38.740Z,11.77
2019-02-14T10:04:09.223Z,12.57
2019-02-14T10:06:39.606Z,11.30
2019-02-14T10:09:10.582Z,11.33
2019-02-14T10:11:40.865Z,10.97
2019-02-14T10:14:12.834Z,10.00
2019-02-14T10:16:43.200Z,11.10
2019-02-14T10:19:13.471Z,10.70
2019-02-14T10:21:43.829Z,11.20
2019-02-14T10:24:16.384Z,10.20
2019-02-14T10:26:46.810Z,11.20
2019-02-14T10:29:17.237Z,10.97
2019-02-14T10:31:47.451Z,10.80
2019-02-14T10:34:17.701Z,11.03
2019-02-14T10:36:47.986Z,10.83
2019-02-14T10:39:18.305Z,10.90
2019-02-14T10:41:48.561Z,10.57
2019-02-14T10:44:18.841Z,10.17
2019-02-14T10:46:49.178Z,9.43
2019-02-14T10:49:19.713Z,9.73
2019-02-14T10:51:50.098Z,8.67
2019-02-14T10:54:20.347Z,8.53
2019-02-14T10:56:50.538Z,8.40
2019-02-14T10:59:20.813Z,8.70
2019-02-14T11:01:51.006Z,8.10
2019-02-14T11:04:21.256Z,8.10
2019-02-14T11:06:51.652Z,7.80
2019-02-14T11:09:21.971Z,7.47
2019-02-14T11:11:52.245Z,7.43
2019-02-14T11:14:28.950Z,7.30
2019-02-14T11:16:54.494Z,7.13
2019-02-14T11:19:24.823Z,7.30
2019-02-14T11:21:55.071Z,6.27
2019-02-14T11:24:25.359Z,6.80
2019-02-14T11:26:55.595Z,6.50
2019-02-14T11:29:25.896Z,6.30
2019-02-14T11:31:56.114Z,7.07
2019-02-14T11:34:26.574Z,6.87
2019-02-14T11:36:56.980Z,6.83
2019-02-14T11:39:27.266Z,6.40
2019-02-14T11:41:57.588Z,6.43
2019-02-14T11:44:27.966Z,6.50
2019-02-14T11:46:59.282Z,5.90
2019-02-14T11:49:29.539Z,6.20
2019-02-14T11:51:59.808Z,5.70
2019-02-14T11:54:31.091Z,5.90
2019-02-14T11:57:01.415Z,5.80
2019-02-14T11:59:31.696Z,5.17
2019-02-14T12:02:01.958Z,5.03
2019-02-14T12:04:33.833Z,5.40
2019-02-14T12:07:04.082Z,5.37
2019-02-14T12:09:34.406Z,5.17
2019-02-14T12:12:04.730Z,4.93
2019-02-14T12:14:35.165Z,4.27
2019-02-14T12:17:05.431Z,5.10
2019-02-14T12:19:37.334Z,4.67
2019-02-14T12:22:07.774Z,3.90
2019-02-14T12:24:38.090Z,4.50
2019-02-14T12:27:08.379Z,3.40
2019-02-14T12:29:39.201Z,3.90
2019-02-14T12:32:09.565Z,3.43
2019-02-14T12:34:40.055Z,3.70
2019-02-14T12:37:10.516Z,3.00
2019-02-14T12:39:40.785Z,3.27
2019-02-14T12:42:11.266Z,3.30
2019-02-14T12:44:41.567Z,2.73
2019-02-14T12:47:12.070Z,3.07
2019-02-14T12:49:42.313Z,2.77
2019-02-14T12:52:12.826Z,3.57
2019-02-14T12:54:43.246Z,2.57
2019-02-14T12:57:13.583Z,3.00
2019-02-14T12:59:44.319Z,2.80
2019-02-14T13:02:14.776Z,3.07
2019-02-14T13:04:45.379Z,4.27
2019-02-14T13:07:15.903Z,3.13
2019-02-14T13:09:46.142Z,2.87
2019-02-14T13:12:16.899Z,2.83
2019-02-14T13:14:47.219Z,2.80
2019-02-14T13:17:17.549Z,2.70
2019-02-14T13:19:47.867Z,2.53
2019-02-14T13:22:21.330Z,2.60
2019-02-14T13:24:51.770Z,2.73
2019-02-14T13:27:22.139Z,3.00
2019-02-14T13:29:52.992Z,2.60
2019-02-14T13:32:23.253Z,2.20
2019-02-14T13:34:54.660Z,2.07
2019-02-14T13:37:25.022Z,2.10
2019-02-14T13:39:55.343Z,2.30
2019-02-14T13:42:25.613Z,1.83
2019-02-14T13:44:56.043Z,2.27
2019-02-14T13:47:27.261Z,2.20
2019-02-14T13:49:57.653Z,2.53
2019-02-14T13:52:27.869Z,2.70
2019-02-14T13:54:58.312Z,2.70
2019-02-14T13:57:28.579Z,2.17
2019-02-14T13:59:59.194Z,1.93
2019-02-14T14:02:29.629Z,1.77
2019-02-14T14:05:02.667Z,1.80
2019-02-14T14:07:40.159Z,1.63
2019-02-14T14:10:05.473Z,1.80
2019-02-14T14:12:36.721Z,1.57
2019-02-14T14:15:07.587Z,1.50
2019-02-14T14:17:37.838Z,1.80
2019-02-14T14:20:08.298Z,1.70
2019-02-14T14:22:38.869Z,2.10
2019-02-14T14:25:09.402Z,1.80
2019-02-14T14:27:39.855Z,2.00
2019-02-14T14:30:10.668Z,1.90
2019-02-14T14:32:40.987Z,1.60
2019-02-14T14:35:11.501Z,2.13
2019-02-14T14:37:42.835Z,1.80
2019-02-14T14:40:13.145Z,1.80
2019-02-14T14:43:08.097Z,2.30
2019-02-14T14:45:58.516Z,2.33
2019-02-14T14:48:33.848Z,1.80
2019-02-14T14:51:04.217Z,2.20
2019-02-14T14:53:34.488Z,2.30
2019-02-14T14:56:04.945Z,1.83
2019-02-14T14:58:35.244Z,2.10
2019-02-14T15:01:05.661Z,2.30
2019-02-14T15:03:35.891Z,2.73
2019-02-14T15:06:07.808Z,3.67
2019-02-14T15:08:38.199Z,2.07
2019-02-14T15:11:08.535Z,2.80
2019-02-14T15:13:38.780Z,1.93
2019-02-14T15:16:09.223Z,3.00
2019-02-14T15:18:39.545Z,2.50
2019-02-14T15:21:09.818Z,2.00
2019-02-14T15:23:40.286Z,2.37
2019-02-14T15:26:10.754Z,2.30
2019-02-14T15:28:43.468Z,2.37
2019-02-14T15:31:15.408Z,2.80
2019-02-14T15:33:45.707Z,2.40
2019-02-14T15:36:15.959Z,3.10
2019-02-14T15:38:46.417Z,2.40
2019-02-14T15:41:16.627Z,2.50
2019-02-14T15:43:48.850Z,2.30
2019-02-14T15:46:19.347Z,2.50
2019-02-14T15:48:51.318Z,2.60
2019-02-14T15:51:21.625Z,2.67
2019-02-14T15:53:51.955Z,2.43
2019-02-14T15:56:22.208Z,2.47
2019-02-14T15:58:54.687Z,2.30
2019-02-14T16:01:24.631Z,2.47
2019-02-14T16:03:55.155Z,2.80
2019-02-14T16:06:28.330Z,1.93
2019-02-14T16:08:59.359Z,2.17
2019-02-14T16:11:31.181Z,3.07
2019-02-14T16:14:01.616Z,2.70
2019-02-14T16:16:31.862Z,2.20
2019-02-14T16:19:02.305Z,2.00
2019-02-14T16:21:32.931Z,2.10
2019-02-14T16:24:03.237Z,2.37
2019-02-14T16:26:35.313Z,2.20
2019-02-14T16:29:06.036Z,2.20
2019-02-14T16:31:36.719Z,2.40
2019-02-14T16:34:07.200Z,3.00
2019-02-14T16:36:37.890Z,2.77
2019-02-14T16:39:10.915Z,3.37
2019-02-14T16:41:41.197Z,2.70
2019-02-14T16:44:11.577Z,3.17
2019-02-14T16:46:41.911Z,3.00
2019-02-14T16:49:12.732Z,3.10
2019-02-14T16:51:44.682Z,3.00
2019-02-14T16:54:15.024Z,2.73
2019-02-14T16:56:45.355Z,2.80
2019-02-14T16:59:15.907Z,2.43
2019-02-14T17:01:46.357Z,2.20
2019-02-14T17:04:18.658Z,2.40
2019-02-14T17:06:49.144Z,2.23
2019-02-14T17:09:19.512Z,2.40
2019-02-14T17:11:49.858Z,2.67
2019-02-14T17:14:20.284Z,2.43
2019-02-14T17:16:50.645Z,2.30
2019-02-14T17:19:21.156Z,2.10
2019-02-14T17:21:51.565Z,2.20
2019-02-14T17:24:21.868Z,2.50
2019-02-14T17:26:52.171Z,2.60
2019-02-14T17:29:22.539Z,2.50
2019-02-14T17:31:54.400Z,2.60
2019-02-14T17:34:24.700Z,2.30
2019-02-14T17:36:55.077Z,2.70
2019-02-14T17:39:26.977Z,2.77
2019-02-14T17:41:57.359Z,3.20
2019-02-14T17:44:27.786Z,2.70
2019-02-14T17:46:58.249Z,3.37
2019-02-14T17:49:28.651Z,3.90
2019-02-14T17:52:04.256Z,4.57
2019-02-14T17:54:34.683Z,4.03
2019-02-14T17:57:05.153Z,4.10
2019-02-14T17:59:38.434Z,3.60
2019-02-14T18:02:09.129Z,3.70
2019-02-14T18:04:42.563Z,4.27
2019-02-14T18:07:12.944Z,4.20
2019-02-14T18:09:43.378Z,4.60
2019-02-14T18:12:13.691Z,4.67
2019-02-14T18:14:44.294Z,4.03
2019-02-14T18:17:14.644Z,3.83
2019-02-14T18:19:45.200Z,4.67
2019-02-14T18:22:17.144Z,4.50
2019-02-14T18:24:47.490Z,4.80
2019-02-14T18:27:17.828Z,4.90
2019-02-14T18:29:48.193Z,3.90
2019-02-14T18:32:18.706Z,4.47
2019-02-14T18:34:49.210Z,5.17
2019-02-14T18:37:19.578Z,4.70
2019-02-14T18:39:50.050Z,4.87
2019-02-14T18:42:20.356Z,5.23
2019-02-14T18:44:50.701Z,4.90
2019-02-14T18:47:21.005Z,6.33
2019-02-14T18:49:57.715Z,6.13
2019-02-14T18:52:28.393Z,5.87
2019-02-14T18:54:58.939Z,6.10
2019-02-14T18:57:29.315Z,5.73
2019-02-14T19:00:01.353Z,6.00
2019-02-14T19:02:33.066Z,6.57
2019-02-14T19:05:03.533Z,6.13
2019-02-14T19:07:33.834Z,6.70
2019-02-14T19:10:04.606Z,6.20
2019-02-14T19:12:35.111Z,5.60
2019-02-14T19:15:05.742Z,5.97
2019-02-14T19:17:37.093Z,6.37
2019-02-14T19:20:07.971Z,6.57
2019-02-14T19:22:39.659Z,6.00
2019-02-14T19:25:10.274Z,6.37
2019-02-14T19:27:40.750Z,6.13
2019-02-14T19:30:12.927Z,6.77
2019-02-14T19:32:43.385Z,6.60
2019-02-14T19:35:22.472Z,6.30
2019-02-14T19:37:46.510Z,6.43
2019-02-14T19:40:19.623Z,5.83
2019-02-14T19:42:49.973Z,6.10
2019-02-14T19:45:20.776Z,6.47
2019-02-14T19:47:51.155Z,6.43
2019-02-14T19:50:21.734Z,7.47
2019-02-14T19:52:54.539Z,5.90
2019-02-14T19:55:24.949Z,7.20
2019-02-14T19:57:59.269Z,6.67
2019-02-14T20:00:29.819Z,6.50
2019-02-14T20:03:00.321Z,6.63
2019-02-14T20:05:30.711Z,6.80
2019-02-14T20:08:01.153Z,7.17
2019-02-14T20:10:31.665Z,7.03
2019-02-14T20:13:02.031Z,6.47
2019-02-14T20:15:37.480Z,7.20
2019-02-14T20:18:07.860Z,7.07
2019-02-14T20:20:38.464Z,7.80
2019-02-14T20:23:08.925Z,6.87
2019-02-14T20:25:39.271Z,7.47
2019-02-14T20:28:09.631Z,7.20
2019-02-14T20:30:40.126Z,7.77
2019-02-14T20:33:10.493Z,7.70
2019-02-14T20:35:41.046Z,7.50
2019-02-14T20:38:11.473Z,8.03
2019-02-14T20:40:43.560Z,7.83
2019-02-14T20:43:13.960Z,7.83
2019-02-14T20:45:44.238Z,8.30
2019-02-14T20:48:15.538Z,7.83
2019-02-14T20:50:45.956Z,7.70
2019-02-14T20:53:16.326Z,8.23
2019-02-14T20:55:46.753Z,7.50
2019-02-14T20:58:17.282Z,7.67
2019-02-14T21:00:47.855Z,8.20
2019-02-14T21:03:18.390Z,8.37
2019-02-14T21:05:48.868Z,7.60
2019-02-14T21:08:19.228Z,8.33
2019-02-14T21:10:49.672Z,8.00
2019-02-14T21:13:19.903Z,7.93
2019-02-14T21:15:50.589Z,8.37
2019-02-14T21:18:21.017Z,8.10
2019-02-14T21:20:51.428Z,8.53
2019-02-14T21:23:21.812Z,8.10
2019-02-14T21:25:52.226Z,8.37
2019-02-14T21:28:22.650Z,8.27
2019-02-14T21:30:54.143Z,8.07
2019-02-14T21:33:24.455Z,8.40
2019-02-14T21:35:54.913Z,9.10
2019-02-14T21:38:25.610Z,8.93
2019-02-14T21:40:58.285Z,9.40
2019-02-14T21:43:28.535Z,8.60
2019-02-14T21:45:58.948Z,8.63
2019-02-14T21:48:29.377Z,8.87
2019-02-14T21:50:59.638Z,9.37
2019-02-14T21:53:29.997Z,7.63
2019-02-14T21:56:02.165Z,9.73
2019-02-14T21:58:32.665Z,8.90
2019-02-14T22:01:03.077Z,8.37
2019-02-14T22:03:33.400Z,8.90
2019-02-14T22:06:03.775Z,8.93
2019-02-14T22:08:34.134Z,9.17
2019-02-14T22:11:04.830Z,8.80
2019-02-14T22:13:35.189Z,9.33
2019-02-14T22:16:05.651Z,9.30
2019-02-14T22:18:35.991Z,9.27
2019-02-14T22:21:06.313Z,9.57
2019-02-14T22:23:36.633Z,9.43
2019-02-14T22:26:06.967Z,8.87
2019-02-14T22:28:37.322Z,8.70
2019-02-14T22:31:07.700Z,9.00
2019-02-14T22:33:38.050Z,9.20
2019-02-14T22:36:08.390Z,9.13
2019-02-14T22:38:38.729Z,9.37
2019-02-14T22:41:09.073Z,9.17
2019-02-14T22:43:39.512Z,9.03
2019-02-14T22:46:09.814Z,9.10
2019-02-14T22:48:40.138Z,8.70
2019-02-14T22:51:10.432Z,8.13
2019-02-14T22:53:40.854Z,8.50
2019-02-14T22:56:11.155Z,8.70
2019-02-14T22:58:41.534Z,8.60
2019-02-14T23:01:12.778Z,7.97
2019-02-14T23:03:43.192Z,8.43
2019-02-14T23:06:13.507Z,8.13
2019-02-14T23:08:43.969Z,7.77
2019-02-14T23:11:14.322Z,7.40
2019-02-14T23:13:44.572Z,7.60
2019-02-14T23:16:15.056Z,8.33
2019-02-14T23:18:45.561Z,8.00
2019-02-14T23:21:15.927Z,7.27
2019-02-14T23:23:46.402Z,7.13
2019-02-14T23:26:16.842Z,7.63
2019-02-14T23:28:47.071Z,7.30
2019-02-14T23:31:17.760Z,7.10
2019-02-14T23:33:48.072Z,7.43
2019-02-14T23:36:18.753Z,8.07
2019-02-14T23:38:49.026Z,7.73
2019-02-14T23:41:20.027Z,7.50
2019-02-14T23:43:50.350Z,7.57
2019-02-14T23:46:22.498Z,8.27
2019-02-14T23:48:52.728Z,7.53
2019-02-14T23:51:23.096Z,7.47
2019-02-14T23:53:53.389Z,7.47
2019-02-14T23:56:23.686Z,8.43
2019-02-14T23:58:54.057Z,8.93
